Time;durP1;ratioP1;P1;durP2;ratioP2;P2;SDS_P1;SDS_P2;PMS_P1;PMS_P2;Temp;Humidity;BMP_temperature;BMP_pressure;BME280_temperature;BME280_humidity;BME280_pressure;Samples;Min_cycle;Max_cycle;Signal;HPM_P1;HPM_P2
2023/01/02 00:00:18;;;;;;;22.32;10.18;;;;;;;10.05;77.39;99627.95;1673030;86;21006;-38
2023/01/02 00:02:44;;;;;;;21.70;10.30;;;;;;;10.04;77.63;99627.58;1672704;86;21002;-38
2023/01/02 00:05:11;;;;;;;21.12;10.50;;;;;;;10.03;77.42;99621.08;1672674;86;20991;-39
2023/01/02 00:07:37;;;;;;;19.63;10.30;;;;;;;10.03;77.33;99619.29;1672898;86;21434;-39
2023/01/02 00:10:03;;;;;;;24.35;10.58;;;;;;;10.05;77.35;99629.27;1672639;84;21039;-39
2023/01/02 00:12:29;;;;;;;20.45;9.28;;;;;;;10.06;77.25;99628.79;1672679;86;21018;-38
2023/01/02 00:14:55;;;;;;;18.15;9.68;;;;;;;9.99;77.87;99630.41;1672684;86;20998;-38
2023/01/02 00:17:20;;;;;;;18.95;10.35;;;;;;;10.05;77.42;99640.24;1672703;86;21014;-39
2023/01/02 00:19:46;;;;;;;19.42;9.63;;;;;;;10.06;77.16;99624.41;1672720;86;21006;-39
2023/01/02 00:22:12;;;;;;;19.27;10.88;;;;;;;10.03;77.50;99620.61;1672679;86;21041;-39
2023/01/02 00:24:38;;;;;;;21.30;9.50;;;;;;;10.06;77.51;99622.22;1672774;86;21022;-39
2023/01/02 00:27:04;;;;;;;19.95;10.13;;;;;;;10.06;77.44;99622.22;1672841;85;21077;-39
2023/01/02 00:29:30;;;;;;;21.23;10.13;;;;;;;10.06;77.54;99619.16;1672864;85;21002;-39
2023/01/02 00:31:56;;;;;;;17.30;9.80;;;;;;;10.06;77.54;99620.91;1672870;86;21859;-39
2023/01/02 00:34:21;;;;;;;21.77;10.72;;;;;;;10.05;77.57;99613.49;1672813;86;21054;-39
2023/01/02 00:36:47;;;;;;;24.92;10.18;;;;;;;10.06;77.69;99611.70;1672795;86;21091;-40
2023/01/02 00:39:13;;;;;;;19.15;9.38;;;;;;;10.05;77.57;99614.81;1672830;86;21110;-39
2023/01/02 00:41:39;;;;;;;19.30;9.35;;;;;;;10.03;77.66;99620.61;1672836;86;21006;-39
2023/01/02 00:44:05;;;;;;;21.80;10.08;;;;;;;10.05;77.66;99616.59;1672819;85;21026;-39
2023/01/02 00:46:31;;;;;;;19.10;9.93;;;;;;;9.99;77.82;99613.80;1672767;86;21015;-39
2023/01/02 00:48:56;;;;;;;18.62;9.53;;;;;;;10.01;77.53;99605.37;1686383;85;21040;-39
2023/01/02 00:51:22;;;;;;;15.03;9.53;;;;;;;10.01;77.66;99609.80;1687993;85;20970;-40
2023/01/02 00:53:48;;;;;;;20.12;9.10;;;;;;;10.02;77.66;99604.91;1678118;84;21574;-39
2023/01/02 00:56:14;;;;;;;17.87;9.10;;;;;;;10.02;77.61;99604.91;1688046;85;21060;-39
2023/01/02 00:58:39;;;;;;;21.23;8.93;;;;;;;10.01;77.81;99601.44;1687970;85;21005;-39
2023/01/02 01:01:05;;;;;;;15.30;8.55;;;;;;;10.01;77.84;99601.91;1688132;85;21012;-39
2023/01/02 01:03:31;;;;;;;19.02;9.15;;;;;;;10.02;77.69;99608.84;1687974;85;21044;-39
2023/01/02 01:05:57;;;;;;;21.40;9.23;;;;;;;10.02;77.40;99607.53;1688057;85;21060;-40
2023/01/02 01:08:23;;;;;;;23.22;9.70;;;;;;;10.04;77.42;99604.37;1688106;85;21024;-39
2023/01/02 01:10:50;;;;;;;16.10;9.48;;;;;;;9.97;77.59;99600.73;1688058;85;21459;-39
2023/01/02 01:13:16;;;;;;;15.45;9.00;;;;;;;9.97;77.70;99600.73;1688119;85;21004;-39
2023/01/02 01:15:43;;;;;;;18.45;9.65;;;;;;;9.97;77.68;99605.98;1687968;83;21025;-39
2023/01/02 01:18:09;;;;;;;16.07;8.83;;;;;;;9.98;77.40;99605.05;1687967;84;20978;-39
2023/01/02 01:20:38;;;;;;;16.23;9.73;;;;;;;9.95;77.96;99601.71;1687931;85;21045;-40
2023/01/02 01:23:04;;;;;;;17.12;9.95;;;;;;;9.99;77.61;99595.41;1687996;85;20985;-39
2023/01/02 01:25:30;;;;;;;19.52;8.98;;;;;;;9.94;77.87;99591.67;1688015;85;21526;-39
2023/01/02 01:27:56;;;;;;;20.02;8.43;;;;;;;9.94;77.94;99592.14;1687964;85;20973;-40
2023/01/02 01:30:21;;;;;;;19.67;9.00;;;;;;;9.93;78.02;99583.42;1687965;85;21332;-39
2023/01/02 01:32:47;;;;;;;14.13;7.80;;;;;;;9.90;78.23;99582.72;1688036;85;21041;-39
2023/01/02 01:35:13;;;;;;;18.27;8.75;;;;;;;9.91;77.93;99589.19;1687935;85;21008;-40
2023/01/02 01:37:39;;;;;;;15.53;7.90;;;;;;;9.90;78.02;99582.25;1687976;83;21432;-40
2023/01/02 01:40:06;;;;;;;20.97;8.63;;;;;;;9.93;77.89;99579.92;1688004;85;21489;-40
2023/01/02 01:42:34;;;;;;;22.42;8.58;;;;;;;9.86;78.42;99576.76;1688111;85;21009;-40
2023/01/02 01:44:59;;;;;;;;;;;;;;;9.85;78.33;99572.41;1690474;85;21072;-40
2023/01/02 01:47:37;;;;;;;18.87;9.05;;;;;;;9.83;78.51;99566.86;1685413;85;20434;-40
2023/01/02 01:50:21;;;;;;;17.48;8.53;;;;;;;9.88;78.22;99560.45;1672517;85;20979;-40
2023/01/02 01:52:57;;;;;;;18.95;8.75;;;;;;;9.89;78.01;99559.52;1672077;85;21006;-40
2023/01/02 01:55:37;;;;;;;17.65;9.13;;;;;;;9.86;78.21;99559.69;1672961;85;21004;-40
2023/01/02 01:58:07;;;;;;;16.02;8.15;;;;;;;9.84;78.36;99555.41;1672756;86;21011;-40
2023/01/02 02:00:34;;;;;;;13.30;8.18;;;;;;;9.84;78.44;99558.91;1672710;86;21054;-40
2023/01/02 02:03:07;;;;;;;14.13;8.05;;;;;;;9.80;78.51;99561.27;1672829;85;21010;-40
2023/01/02 02:05:35;;;;;;;12.40;7.28;;;;;;;9.83;78.34;99560.30;1672936;86;21062;-39
2023/01/02 02:08:41;;;;;;;16.97;8.75;;;;;;;9.79;78.73;99553.02;1672855;86;21010;-39
2023/01/02 02:11:07;;;;;;;16.37;7.70;;;;;;;9.81;78.55;99560.36;1672979;86;21587;-40
2023/01/02 02:13:33;;;;;;;18.35;7.90;;;;;;;9.81;78.69;99553.80;1672815;85;21006;-39
2023/01/02 02:16:39;;;;;;;18.27;7.72;;;;;;;9.80;78.79;99554.70;1672784;86;20990;-39
2023/01/02 02:19:30;;;;;;;14.25;8.15;;;;;;;9.82;78.78;99554.64;1673052;86;20999;-39
2023/01/02 02:22:49;;;;;;;19.42;8.95;;;;;;;9.80;78.80;99545.08;1672794;86;21511;-40
2023/01/02 02:26:01;;;;;;;15.23;7.55;;;;;;;9.83;78.82;99532.72;1672681;86;20995;-40
2023/01/02 02:28:47;;;;;;;14.28;7.95;;;;;;;9.81;78.93;99535.41;1672734;86;21571;-39
2023/01/02 02:31:59;;;;;;;14.87;7.95;;;;;;;9.83;78.59;99530.93;1671100;85;21037;-39
2023/01/02 02:35:00;;;;;;;15.75;7.30;;;;;;;9.78;78.89;99528.98;1672836;86;21018;-40
2023/01/02 02:37:34;;;;;;;13.78;7.55;;;;;;;9.79;78.71;99518.88;1671865;84;20966;-39
2023/01/02 02:43:55;;;;;;;14.85;7.30;;;;;;;9.84;78.87;99530.45;1799975;79;22574;-38
2023/01/02 02:46:50;;;;;;;18.85;7.80;;;;;;;9.81;78.78;99538.03;1761693;80;21007;-39
2023/01/02 02:49:41;;;;;;;15.60;7.42;;;;;;;9.80;78.95;99533.69;1761752;81;21475;-38
2023/01/02 02:52:31;;;;;;;12.35;7.92;;;;;;;9.79;78.87;99539.42;1761775;81;20995;-38
2023/01/02 02:55:14;;;;;;;16.67;7.80;;;;;;;9.81;78.91;99545.92;1762023;81;21045;-39
2023/01/02 02:57:42;;;;;;;15.00;7.60;;;;;;;9.79;78.89;99546.45;1742525;81;21046;-39
2023/01/02 03:00:13;;;;;;;15.55;8.13;;;;;;;9.79;79.03;99550.39;1761761;80;20995;-38
2023/01/02 03:02:39;;;;;;;11.65;7.42;;;;;;;9.79;78.86;99548.61;1761725;80;20995;-38
2023/01/02 03:05:09;;;;;;;11.60;7.35;;;;;;;9.79;78.73;99547.77;1761661;80;20995;-39
2023/01/02 03:07:52;;;;;;;15.78;7.75;;;;;;;9.77;78.83;99538.64;1761692;81;21046;-38
2023/01/02 03:10:33;;;;;;;13.72;7.30;;;;;;;9.72;79.16;99533.23;1761740;80;21043;-38
2023/01/02 03:13:07;;;;;;;15.32;7.10;;;;;;;9.66;79.38;99531.75;1761744;80;21404;-38
2023/01/02 03:15:38;;;;;;;11.75;7.40;;;;;;;9.65;79.41;99533.12;1761801;80;21183;-39
2023/01/02 03:18:28;;;;;;;11.10;7.00;;;;;;;9.61;79.23;99529.33;1761055;81;20995;-38
2023/01/02 03:21:05;;;;;;;14.58;7.05;;;;;;;9.56;79.78;99522.13;1761760;80;21478;-38
2023/01/02 03:23:36;;;;;;;12.88;7.35;;;;;;;9.52;80.03;99521.89;1761905;80;21470;-38
2023/01/02 03:26:04;;;;;;;15.80;7.87;;;;;;;9.50;79.92;99519.80;1761811;81;21492;-38
2023/01/02 03:28:32;;;;;;;15.55;7.80;;;;;;;9.51;80.07;99511.45;1761791;81;21003;-38
2023/01/02 03:31:01;;;;;;;14.03;7.85;;;;;;;9.48;80.02;99511.16;1761703;81;21026;-39
2023/01/02 03:33:34;;;;;;;12.05;7.28;;;;;;;9.48;79.95;99516.41;1761750;81;20995;-39
2023/01/02 03:36:05;;;;;;;16.80;7.65;;;;;;;9.45;80.09;99525.73;1761719;80;20994;-38
2023/01/02 03:38:36;;;;;;;13.13;7.47;;;;;;;9.41;80.30;99526.33;1742535;81;20979;-39
2023/01/02 03:41:12;;;;;;;13.90;7.30;;;;;;;9.39;80.34;99527.34;1761700;81;21499;-39
2023/01/02 03:43:40;;;;;;;12.80;7.00;;;;;;;9.40;80.28;99527.71;1748364;80;21024;-39
2023/01/02 03:46:24;;;;;;;17.48;7.25;;;;;;;9.37;80.52;99527.87;1748683;81;21403;-38
2023/01/02 03:49:00;;;;;;;14.07;6.95;;;;;;;9.36;80.42;99524.84;1748466;81;20968;-38
2023/01/02 03:51:27;;;;;;;14.35;7.42;;;;;;;9.34;80.44;99530.63;1748543;81;21039;-39
2023/01/02 03:53:53;;;;;;;19.45;6.95;;;;;;;9.28;80.79;99529.14;1748248;81;21008;-38
2023/01/02 03:56:33;;;;;;;14.97;7.33;;;;;;;9.29;80.72;99533.45;1748331;81;20972;-39
2023/01/02 03:59:23;;;;;;;12.63;7.03;;;;;;;9.28;80.80;99530.45;1747780;81;21137;-39
2023/01/02 04:02:06;;;;;;;12.18;7.25;;;;;;;9.22;81.33;99526.34;1748107;81;21018;-38
2023/01/02 04:04:48;;;;;;;16.07;7.28;;;;;;;9.25;80.78;99529.75;1742857;81;20995;-39
2023/01/02 04:07:19;;;;;;;12.00;7.17;;;;;;;9.20;81.03;99526.88;1748096;81;20995;-38
2023/01/02 04:09:47;;;;;;;12.28;7.12;;;;;;;9.19;81.47;99525.16;1745376;81;20984;-39
2023/01/02 04:12:16;;;;;;;14.07;7.65;;;;;;;9.16;81.51;99525.77;1748201;82;21023;-38
2023/01/02 04:14:49;;;;;;;14.90;7.62;;;;;;;9.13;81.89;99516.27;1748170;81;20999;-39
2023/01/02 04:17:19;;;;;;;15.70;7.53;;;;;;;9.14;81.25;99519.27;1737538;82;21508;-38
2023/01/02 04:19:49;;;;;;;12.93;7.50;;;;;;;9.12;81.80;99513.72;1748110;81;20964;-39
2023/01/02 04:22:20;;;;;;;13.10;7.70;;;;;;;9.13;81.81;99501.84;1748150;81;21020;-39
2023/01/02 04:24:51;;;;;;;21.75;8.28;;;;;;;9.16;81.68;99497.74;1748091;81;20992;-38
2023/01/02 04:27:28;;;;;;;14.00;8.20;;;;;;;9.14;81.90;99499.59;1748069;81;20995;-38
2023/01/02 04:29:55;;;;;;;17.32;8.38;;;;;;;9.18;81.69;99502.45;1748085;81;20991;-38
2023/01/02 04:32:31;;;;;;;15.93;8.28;;;;;;;9.16;81.90;99502.15;1748178;81;21455;-39
2023/01/02 04:34:59;;;;;;;16.50;7.30;;;;;;;9.17;82.03;99503.39;1748069;81;21026;-38
2023/01/02 04:37:39;;;;;;;14.75;6.62;;;;;;;9.16;82.06;99497.74;1748049;81;21000;-38
2023/01/02 04:40:28;;;;;;;13.15;7.05;;;;;;;9.19;81.81;99492.84;1748152;81;21034;-39
2023/01/02 04:42:54;;;;;;;14.85;7.20;;;;;;;9.17;81.87;99486.34;1755264;81;21850;-39
2023/01/02 04:45:20;;;;;;;13.85;7.90;;;;;;;9.20;81.99;99480.09;1761396;81;21884;-39
2023/01/02 04:47:48;;;;;;;18.95;7.20;;;;;;;9.23;81.78;99480.80;1761406;81;21030;-38
2023/01/02 04:50:13;;;;;;;14.93;7.15;;;;;;;9.26;81.80;99481.13;1761623;81;21015;-39
2023/01/02 04:52:39;;;;;;;12.88;7.53;;;;;;;9.28;81.62;99483.66;1761469;81;21175;-38
2023/01/02 04:55:08;;;;;;;11.55;6.75;;;;;;;9.30;81.79;99483.16;1761358;81;20992;-39
2023/01/02 04:57:38;;;;;;;15.53;7.47;;;;;;;9.31;81.73;99487.46;1761313;81;21865;-39
2023/01/02 05:00:07;;;;;;;12.05;6.55;;;;;;;9.34;81.54;99483.39;1761490;81;21456;-39
2023/01/02 05:02:38;;;;;;;8.35;5.92;;;;;;;9.35;81.58;99478.52;1761358;81;20995;-38
2023/01/02 05:05:06;;;;;;;12.70;6.45;;;;;;;9.33;81.77;99479.05;1761339;81;20990;-38
2023/01/02 05:07:33;;;;;;;16.23;6.70;;;;;;;9.37;81.53;99477.53;1761361;81;20987;-39
2023/01/02 05:09:59;;;;;;;10.10;6.33;;;;;;;9.38;81.65;99471.81;1761701;81;21468;-39
2023/01/02 05:12:25;;;;;;;8.88;6.03;;;;;;;9.39;81.68;99467.81;1761358;81;20991;-39
2023/01/02 05:14:51;;;;;;;13.13;5.95;;;;;;;9.43;81.40;99466.36;1761428;81;20983;-38
2023/01/02 05:17:16;;;;;;;11.75;6.20;;;;;;;9.45;81.33;99465.34;1761429;81;21885;-38
2023/01/02 05:19:42;;;;;;;9.13;5.30;;;;;;;9.48;81.23;99465.66;1760908;81;21037;-38
2023/01/02 05:24:57;;;;;;;9.33;5.70;;;;;;;9.49;81.28;99453.77;1761460;81;21551;-39
2023/01/02 05:27:22;;;;;;;11.20;6.00;;;;;;;9.49;81.19;99451.14;1761492;81;20987;-38
2023/01/02 05:29:48;;;;;;;16.70;7.17;;;;;;;9.49;81.17;99453.77;1761538;81;21492;-38
2023/01/02 05:32:14;;;;;;;12.30;6.15;;;;;;;9.50;81.26;99450.70;1761530;81;21536;-39
2023/01/02 05:34:40;;;;;;;14.23;6.58;;;;;;;9.52;81.18;99454.11;1761511;81;21457;-38
2023/01/02 05:37:05;;;;;;;12.95;6.78;;;;;;;9.53;81.06;99455.78;1761457;81;21476;-39
2023/01/02 05:39:31;;;;;;;11.18;6.25;;;;;;;9.52;81.23;99444.45;1761397;81;20995;-39
2023/01/02 05:41:57;;;;;;;12.63;6.62;;;;;;;9.54;81.31;99445.22;1760333;81;20992;-39
2023/01/02 05:44:23;;;;;;;13.90;6.90;;;;;;;9.52;81.34;99437.88;1748271;81;20999;-39
2023/01/02 05:46:49;;;;;;;13.93;6.67;;;;;;;9.53;81.30;99433.03;1748116;81;20995;-39
2023/01/02 05:49:15;;;;;;;15.05;6.87;;;;;;;9.54;81.33;99427.31;1748157;81;21618;-38
2023/01/02 05:51:40;;;;;;;15.63;6.60;;;;;;;9.55;81.21;99429.86;1747996;81;21608;-40
2023/01/02 05:54:07;;;;;;;9.73;5.97;;;;;;;9.56;81.25;99432.86;1748071;81;21034;-39
2023/01/02 05:56:33;;;;;;;11.93;6.22;;;;;;;9.53;81.50;99439.59;1748177;82;20961;-38
2023/01/02 05:58:59;;;;;;;12.85;6.25;;;;;;;9.56;81.21;99452.55;1748047;81;21039;-38
2023/01/02 06:01:28;;;;;;;13.83;7.12;;;;;;;9.56;81.30;99447.30;1748033;81;21000;-38
2023/01/02 06:03:57;;;;;;;14.40;7.35;;;;;;;9.55;81.27;99440.37;1748045;81;21469;-39
2023/01/02 06:06:33;;;;;;;11.83;6.20;;;;;;;9.52;81.67;99443.60;1748038;81;21068;-39
2023/01/02 06:09:00;;;;;;;11.12;6.37;;;;;;;9.57;81.22;99450.33;1748079;81;20968;-38
2023/01/02 06:11:27;;;;;;;14.73;6.40;;;;;;;9.53;81.40;99454.03;1748328;81;20995;-38
2023/01/02 06:13:54;;;;;;;11.28;6.33;;;;;;;9.53;81.71;99444.84;1748361;81;20996;-38
2023/01/02 06:16:21;;;;;;;12.37;6.33;;;;;;;9.54;81.77;99433.88;1748320;81;21027;-38
2023/01/02 06:18:47;;;;;;;11.13;7.20;;;;;;;9.56;81.69;99425.45;1748295;81;21552;-40
2023/01/02 06:21:17;;;;;;;9.65;6.47;;;;;;;9.56;81.83;99429.39;1748382;81;21426;-39
2023/01/02 06:23:44;;;;;;;17.62;6.83;;;;;;;9.57;81.95;99423.23;1748121;81;20968;-38
2023/01/02 06:26:14;;;;;;;11.90;6.75;;;;;;;9.59;81.84;99424.84;1748290;81;21004;-38
2023/01/02 06:28:40;;;;;;;18.50;6.40;;;;;;;9.59;81.94;99430.09;1747345;81;20988;-39
2023/01/02 06:31:13;;;;;;;18.13;6.63;;;;;;;9.63;81.82;99422.08;1748413;81;20992;-39
2023/01/02 06:33:39;;;;;;;14.33;7.58;;;;;;;9.59;82.17;99411.72;1748231;81;21052;-39
2023/01/02 06:36:09;;;;;;;13.05;6.55;;;;;;;9.60;82.18;99404.23;1748140;81;20991;-39
2023/01/02 06:38:36;;;;;;;17.98;6.25;;;;;;;9.65;81.90;99410.56;1748110;81;21034;-38
2023/01/02 06:41:04;;;;;;;10.13;6.70;;;;;;;9.67;82.02;99407.86;1748229;81;21051;-39
2023/01/02 06:43:30;;;;;;;14.40;7.22;;;;;;;9.67;81.94;99403.92;1755826;81;21023;-38
2023/01/02 06:45:59;;;;;;;20.00;6.77;;;;;;;9.67;82.00;99403.92;1761579;81;20967;-40
2023/01/02 06:48:25;;;;;;;14.03;7.12;;;;;;;9.68;82.02;99398.60;1760669;80;21019;-39
2023/01/02 06:50:51;;;;;;;13.60;7.20;;;;;;;9.67;82.01;99386.86;1761452;81;20995;-39
2023/01/02 06:53:18;;;;;;;18.32;7.97;;;;;;;9.64;82.13;99385.69;1761405;81;21003;-39
2023/01/02 06:55:51;;;;;;;14.20;7.35;;;;;;;9.65;82.02;99390.87;1761388;81;20988;-39
2023/01/02 06:58:18;;;;;;;18.67;7.70;;;;;;;9.66;82.01;99390.39;1761326;81;21437;-38
2023/01/02 07:00:44;;;;;;;16.62;6.83;;;;;;;9.65;82.11;99390.03;1761735;81;21511;-39
2023/01/02 07:03:10;;;;;;;17.75;6.97;;;;;;;9.69;81.86;99390.25;1761346;81;20987;-38
2023/01/02 07:05:35;;;;;;;13.35;6.80;;;;;;;9.70;82.06;99392.80;1761388;81;21026;-38
2023/01/02 07:08:01;;;;;;;14.45;6.40;;;;;;;9.72;82.00;99390.95;1761400;81;21615;-39
2023/01/02 07:10:27;;;;;;;10.38;6.42;;;;;;;9.73;81.91;99395.73;1761350;80;21055;-38
2023/01/02 07:12:53;;;;;;;12.03;6.25;;;;;;;9.72;82.13;99388.80;1761276;80;21030;-38
2023/01/02 07:15:19;;;;;;;15.50;6.30;;;;;;;9.75;81.96;99384.23;1761474;81;20995;-38
2023/01/02 07:17:45;;;;;;;10.90;6.15;;;;;;;9.74;82.06;99388.25;1761460;81;20965;-39
2023/01/02 07:20:11;;;;;;;14.53;7.00;;;;;;;9.76;82.07;99385.08;1761364;81;21058;-38
2023/01/02 07:22:37;;;;;;;21.37;7.30;;;;;;;9.73;82.14;99387.85;1761342;81;20995;-38
2023/01/02 07:25:04;;;;;;;17.17;6.72;;;;;;;9.78;82.05;99384.53;1761359;81;21003;-38
2023/01/02 07:27:30;;;;;;;12.82;6.50;;;;;;;9.80;81.98;99381.36;1761566;81;21182;-39
2023/01/02 07:29:57;;;;;;;15.10;6.42;;;;;;;9.79;82.11;99377.05;1761769;81;20967;-39
2023/01/02 07:32:23;;;;;;;17.32;7.10;;;;;;;9.80;82.16;99378.73;1761594;81;21015;-39
2023/01/02 07:34:50;;;;;;;15.25;6.67;;;;;;;9.81;82.05;99380.45;1761542;81;21340;-39
2023/01/02 07:37:17;;;;;;;13.93;6.30;;;;;;;9.80;82.17;99376.11;1761514;81;21074;-38
2023/01/02 07:39:42;;;;;;;12.45;6.58;;;;;;;9.82;82.01;99376.03;1761513;81;21999;-39
2023/01/02 07:42:08;;;;;;;18.52;6.97;;;;;;;9.81;82.17;99380.45;1761466;81;20964;-39
2023/01/02 07:44:34;;;;;;;15.23;6.45;;;;;;;9.85;81.97;99388.55;1761486;81;21477;-38
2023/01/02 07:47:00;;;;;;;13.72;6.25;;;;;;;9.88;82.00;99386.25;1761668;80;21493;-39
2023/01/02 07:49:26;;;;;;;11.22;5.60;;;;;;;9.88;82.04;99393.66;1744467;81;21030;-39
2023/01/02 07:51:51;;;;;;;18.50;7.05;;;;;;;9.89;82.03;99401.06;1761488;81;21034;-39
2023/01/02 07:54:17;;;;;;;12.63;6.55;;;;;;;9.91;82.00;99402.67;1761503;81;20988;-39
2023/01/02 07:56:43;;;;;;;11.68;5.67;;;;;;;9.95;81.76;99402.93;1761463;81;21528;-39
2023/01/02 07:59:09;;;;;;;12.70;6.20;;;;;;;9.99;81.75;99394.42;1761571;81;21516;-39
2023/01/02 08:01:35;;;;;;;14.93;6.70;;;;;;;10.00;81.77;99396.11;1761543;81;21465;-38
2023/01/02 08:04:00;;;;;;;17.60;6.20;;;;;;;10.05;81.61;99393.26;1761470;81;21038;-39
2023/01/02 08:06:26;;;;;;;9.85;5.53;;;;;;;10.04;81.61;99392.86;1761452;81;21041;-39
2023/01/02 08:08:52;;;;;;;13.10;6.50;;;;;;;10.10;81.45;99391.25;1761526;81;21031;-39
2023/01/02 08:11:21;;;;;;;14.07;5.58;;;;;;;10.14;81.30;99395.41;1761487;80;21027;-39
2023/01/02 08:13:47;;;;;;;10.60;6.55;;;;;;;10.13;81.31;99389.75;1759725;81;21672;-39
2023/01/02 08:16:18;;;;;;;10.48;6.15;;;;;;;10.17;81.21;99379.49;1758715;81;21504;-39
2023/01/02 08:18:45;;;;;;;9.80;5.65;;;;;;;10.21;81.16;99381.02;1755017;81;21018;-39
2023/01/02 08:21:12;;;;;;;14.80;5.83;;;;;;;10.23;81.00;99385.73;1755987;80;20970;-39
2023/01/02 08:23:38;;;;;;;11.60;6.03;;;;;;;10.19;81.16;99386.83;1755994;81;21477;-39
2023/01/02 08:26:07;;;;;;;15.08;5.97;;;;;;;10.20;80.96;99395.08;1756420;81;20967;-39
2023/01/02 08:28:35;;;;;;;13.38;6.10;;;;;;;10.26;80.92;99394.78;1757241;81;21042;-39
2023/01/02 08:31:08;;;;;;;9.83;5.92;;;;;;;10.33;80.86;99403.20;1757174;80;21633;-39
2023/01/02 08:33:33;;;;;;;15.63;6.55;;;;;;;10.40;80.74;99398.01;1759349;81;21095;-38
2023/01/02 08:36:00;;;;;;;9.55;5.97;;;;;;;10.38;80.55;99402.03;1760339;80;21067;-39
2023/01/02 08:38:26;;;;;;;13.35;6.60;;;;;;;10.47;80.53;99398.55;1760205;81;21094;-38
2023/01/02 08:40:52;;;;;;;12.78;5.60;;;;;;;10.51;80.39;99394.81;1761393;81;21053;-38
2023/01/02 08:43:18;;;;;;;13.08;5.58;;;;;;;10.54;80.27;99392.03;1761236;80;21022;-39
2023/01/02 08:45:44;;;;;;;14.60;5.67;;;;;;;10.53;80.16;99396.89;1761392;81;21421;-39
2023/01/02 08:48:09;;;;;;;10.65;6.05;;;;;;;10.59;80.10;99404.47;1761338;80;21016;-38
2023/01/02 08:50:35;;;;;;;14.00;5.83;;;;;;;10.66;80.05;99400.58;1758727;81;20955;-38
2023/01/02 08:53:01;;;;;;;9.13;6.15;;;;;;;10.70;79.94;99398.16;1755653;82;20995;-38
2023/01/02 08:55:27;;;;;;;14.35;8.03;;;;;;;10.73;79.86;99396.69;1756180;81;21540;-38
2023/01/02 08:57:52;;;;;;;10.38;6.40;;;;;;;10.79;79.85;99392.88;1757602;81;21500;-39
2023/01/02 09:00:18;;;;;;;10.72;6.33;;;;;;;10.81;79.66;99396.27;1757265;80;21465;-38
2023/01/02 09:02:44;;;;;;;13.90;6.70;;;;;;;10.86;79.62;99398.63;1755641;82;20994;-39
2023/01/02 09:05:12;;;;;;;20.55;6.60;;;;;;;10.89;79.52;99394.05;1755672;82;20999;-39
2023/01/02 09:07:38;;;;;;;18.62;6.80;;;;;;;10.86;79.15;99391.61;1755664;82;21038;-38
2023/01/02 09:10:04;;;;;;;21.05;7.15;;;;;;;10.91;79.26;99383.44;1757558;81;20975;-38
2023/01/02 09:12:30;;;;;;;23.07;7.47;;;;;;;10.89;79.03;99380.05;1758187;81;21493;-38
2023/01/02 09:14:56;;;;;;;26.23;7.90;;;;;;;11.00;79.13;99384.24;1758526;81;20990;-38
2023/01/02 09:17:22;;;;;;;17.45;6.75;;;;;;;11.04;79.07;99393.69;1758521;81;20986;-38
2023/01/02 09:19:47;;;;;;;15.03;6.80;;;;;;;11.06;78.91;99390.50;1757608;80;20976;-38
2023/01/02 09:22:14;;;;;;;15.63;6.62;;;;;;;11.13;78.85;99389.23;1758568;81;21058;-38
2023/01/02 09:24:40;;;;;;;11.08;5.35;;;;;;;11.20;78.60;99384.45;1757973;81;20966;-38
2023/01/02 09:27:07;;;;;;;19.12;7.05;;;;;;;11.23;78.29;99387.39;1758211;81;21014;-37
2023/01/02 09:29:32;;;;;;;15.90;6.62;;;;;;;11.31;78.34;99383.84;1735102;81;21479;-38
2023/01/02 09:32:00;;;;;;;19.05;6.55;;;;;;;11.34;78.32;99379.72;1757023;81;21026;-39
2023/01/02 09:34:26;;;;;;;28.98;8.83;;;;;;;11.40;78.09;99383.31;1755691;82;20990;-38
2023/01/02 09:36:52;;;;;;;19.23;6.87;;;;;;;11.45;78.10;99381.27;1756776;81;20944;-39
2023/01/02 09:39:17;;;;;;;11.33;5.55;;;;;;;11.47;77.56;99379.39;1757934;81;21026;-38
2023/01/02 09:41:48;;;;;;;14.43;6.58;;;;;;;11.52;77.68;99373.40;1758079;81;20939;-38
2023/01/02 09:44:31;;;;;;;16.65;6.17;;;;;;;11.54;77.53;99375.95;1750884;81;20953;-38
2023/01/02 09:47:11;;;;;;;12.70;6.15;;;;;;;11.58;77.28;99369.55;1741212;82;20944;-38
2023/01/02 09:49:52;;;;;;;21.35;7.30;;;;;;;11.56;76.69;99367.48;1740568;82;20972;-38
2023/01/02 09:52:26;;;;;;;22.20;7.08;;;;;;;11.65;76.99;99372.21;1741459;82;20968;-38
2023/01/02 09:54:52;;;;;;;15.28;5.85;;;;;;;11.70;77.11;99364.05;1745002;82;20979;-38
2023/01/02 09:57:30;;;;;;;14.50;6.10;;;;;;;11.74;76.88;99369.52;1744442;82;20968;-38
2023/01/02 10:00:19;;;;;;;16.10;6.12;;;;;;;11.74;76.43;99365.56;1738630;81;21437;-38
2023/01/02 10:02:59;;;;;;;11.75;5.78;;;;;;;11.75;76.29;99364.64;1742294;82;21011;-37
2023/01/02 10:05:53;;;;;;;20.12;6.55;;;;;;;11.83;76.60;99353.16;1742362;81;21441;-38
2023/01/02 10:09:02;;;;;;;14.68;5.90;;;;;;;11.88;76.63;99356.38;1741569;81;21499;-38
2023/01/02 10:11:51;;;;;;;30.57;6.35;;;;;;;11.89;76.20;99359.37;1706120;82;21418;-38
2023/01/02 10:14:39;;;;;;;15.45;6.03;;;;;;;11.98;76.40;99350.58;1742222;82;21472;-39
2023/01/02 10:17:08;;;;;;;18.75;5.42;;;;;;;12.02;76.19;99352.08;1722875;82;21002;-38
2023/01/02 10:20:03;;;;;;;11.88;5.03;;;;;;;12.03;75.70;99343.25;1703800;83;20951;-38
2023/01/02 10:22:43;;;;;;;10.43;4.87;;;;;;;12.05;75.46;99342.69;1706171;83;21623;-41
2023/01/02 10:25:35;;;;;;;11.05;4.37;;;;;;;12.11;75.84;99337.03;1672469;84;20979;-38
2023/01/02 10:28:12;;;;;;;9.25;4.47;;;;;;;12.16;75.62;99336.28;1673412;84;21042;-38
2023/01/02 10:30:43;;;;;;;11.70;4.45;;;;;;;12.19;75.66;99342.70;1716030;82;20972;-42
2023/01/02 10:33:43;;;;;;;10.25;4.42;;;;;;;12.22;75.55;99335.89;1746169;82;20953;-39
2023/01/02 10:36:26;;;;;;;9.63;4.97;;;;;;;12.28;75.78;99326.31;1747455;81;21576;-39
2023/01/02 10:38:59;;;;;;;10.13;4.70;;;;;;;12.31;75.36;99329.69;1745954;81;21019;-39
2023/01/02 10:41:27;;;;;;;9.30;4.80;;;;;;;12.35;75.51;99328.55;1746537;81;21000;-38
2023/01/02 10:43:58;;;;;;;10.85;4.92;;;;;;;12.36;75.08;99326.30;1748338;81;20999;-38
2023/01/02 10:46:31;;;;;;;9.25;4.80;;;;;;;12.39;75.03;99328.77;1755073;80;21633;-40
2023/01/02 10:48:57;;;;;;;9.08;4.40;;;;;;;12.41;75.07;99323.75;1754759;80;20992;-37
2023/01/02 10:51:23;;;;;;;10.28;4.87;;;;;;;12.45;74.69;99313.86;1755469;82;21011;-38
2023/01/02 10:54:05;;;;;;;12.65;5.05;;;;;;;12.48;74.60;99307.92;1754831;81;20979;-39
2023/01/02 10:56:35;;;;;;;12.00;4.85;;;;;;;12.56;74.88;99302.16;1762702;80;20986;-38
2023/01/02 10:59:02;;;;;;;15.43;6.05;;;;;;;12.60;74.85;99301.49;1747724;82;20936;-38
2023/01/02 11:01:29;;;;;;;11.70;5.93;;;;;;;12.63;74.87;99302.14;1750119;82;21469;-38
2023/01/02 11:04:00;;;;;;;16.52;4.95;;;;;;;12.58;74.14;99300.27;1755261;80;20990;-38
2023/01/02 11:06:32;;;;;;;12.73;5.33;;;;;;;12.62;74.34;99304.88;1748685;82;20984;-39
2023/01/02 11:09:24;;;;;;;9.13;4.85;;;;;;;12.61;74.23;99307.99;1729505;82;20999;-38
2023/01/02 11:11:55;;;;;;;9.23;4.30;;;;;;;12.64;74.31;99299.02;1751059;82;20959;-39
2023/01/02 11:14:28;;;;;;;11.53;5.00;;;;;;;12.64;74.19;99305.62;1754903;82;20936;-39
2023/01/02 11:17:14;;;;;;;16.32;5.00;;;;;;;12.65;74.11;99305.53;1753066;81;20960;-39
2023/01/02 11:19:44;;;;;;;10.30;4.72;;;;;;;12.68;74.20;99288.67;1754687;81;21011;-39
2023/01/02 11:22:14;;;;;;;9.75;4.97;;;;;;;12.73;74.21;99283.08;1749091;81;21003;-39
2023/01/02 11:25:00;;;;;;;9.28;4.70;;;;;;;12.73;74.27;99275.17;1753036;82;21457;-39
2023/01/02 11:27:35;;;;;;;8.65;5.00;;;;;;;12.69;73.81;99274.52;1755238;82;21481;-39
2023/01/02 11:30:04;;;;;;;11.55;5.45;;;;;;;12.67;74.08;99274.61;1755193;81;21183;-40
2023/01/02 11:32:39;;;;;;;15.50;5.42;;;;;;;12.65;74.20;99280.46;1754321;81;20963;-41
2023/01/02 11:35:36;;;;;;;13.13;4.90;;;;;;;12.63;74.23;99276.25;1727450;82;20967;-40
2023/01/02 11:38:02;;;;;;;9.63;4.55;;;;;;;12.61;74.24;99273.70;1740004;82;21496;-39
2023/01/02 11:40:31;;;;;;;12.65;5.33;;;;;;;12.61;74.36;99268.91;1753345;82;21496;-38
2023/01/02 11:45:47;;;;;;;14.58;6.00;;;;;;;12.61;74.55;99282.09;1750849;82;21050;-40
2023/01/02 11:48:19;;;;;;;11.83;5.35;;;;;;;12.63;74.61;99286.31;1751608;82;20966;-38
2023/01/02 11:50:47;;;;;;;9.08;5.05;;;;;;;12.64;74.58;99299.89;1752532;82;21011;-39
2023/01/02 11:53:21;;;;;;;14.60;5.10;;;;;;;12.65;74.64;99298.09;1752113;82;20928;-39
2023/01/02 11:56:10;;;;;;;13.05;5.15;;;;;;;12.66;74.61;99295.36;1752079;81;21361;-38
2023/01/02 11:59:19;;;;;;;13.62;5.50;;;;;;;12.68;74.82;99289.52;1751159;82;21003;-38